sensor_id;sensor_type;location;lat;lon;timestamp;P1;durP1;ratioP1;P2;durP2;ratioP2
51560;SDS011;37654;51.262;17.058;2023-08-30T00:01:33;8.75;;;3.40;;
51560;SDS011;37654;51.262;17.058;2023-08-30T00:03:59;5.95;;;3.33;;
51560;SDS011;37654;51.262;17.058;2023-08-30T00:06:25;7.00;;;4.30;;
51560;SDS011;37654;51.262;17.058;2023-08-30T00:08:50;6.15;;;3.55;;
51560;SDS011;37654;51.262;17.058;2023-08-30T00:11:16;11.20;;;3.93;;
51560;SDS011;37654;51.262;17.058;2023-08-30T00:13:41;6.07;;;4.28;;
51560;SDS011;37654;51.262;17.058;2023-08-30T00:16:07;4.63;;;3.45;;
51560;SDS011;37654;51.262;17.058;2023-08-30T00:18:32;5.63;;;3.23;;
51560;SDS011;37654;51.262;17.058;2023-08-30T00:20:58;5.35;;;3.20;;
51560;SDS011;37654;51.262;17.058;2023-08-30T00:23:23;7.53;;;3.30;;
51560;SDS011;37654;51.262;17.058;2023-08-30T00:25:49;5.82;;;3.28;;
51560;SDS011;37654;51.262;17.058;2023-08-30T00:28:14;7.73;;;3.30;;
51560;SDS011;37654;51.262;17.058;2023-08-30T00:30:40;4.78;;;2.70;;
51560;SDS011;37654;51.262;17.058;2023-08-30T00:33:05;14.73;;;3.85;;
51560;SDS011;37654;51.262;17.058;2023-08-30T00:35:31;7.13;;;3.13;;
51560;SDS011;37654;51.262;17.058;2023-08-30T00:37:56;9.90;;;3.15;;
51560;SDS011;37654;51.262;17.058;2023-08-30T00:40:24;4.87;;;3.07;;
51560;SDS011;37654;51.262;17.058;2023-08-30T00:42:50;9.07;;;3.03;;
51560;SDS011;37654;51.262;17.058;2023-08-30T00:45:15;5.00;;;2.80;;
51560;SDS011;37654;51.262;17.058;2023-08-30T00:47:41;5.15;;;2.88;;
51560;SDS011;37654;51.262;17.058;2023-08-30T00:50:07;6.13;;;3.63;;
51560;SDS011;37654;51.262;17.058;2023-08-30T00:52:32;5.35;;;2.70;;
51560;SDS011;37654;51.262;17.058;2023-08-30T00:54:58;6.78;;;4.13;;
51560;SDS011;37654;51.262;17.058;2023-08-30T00:57:24;5.50;;;3.70;;
51560;SDS011;37654;51.262;17.058;2023-08-30T00:59:50;8.30;;;3.08;;
51560;SDS011;37654;51.262;17.058;2023-08-30T01:02:16;4.28;;;2.72;;
51560;SDS011;37654;51.262;17.058;2023-08-30T01:04:42;7.90;;;2.88;;
51560;SDS011;37654;51.262;17.058;2023-08-30T01:07:07;5.97;;;2.20;;
51560;SDS011;37654;51.262;17.058;2023-08-30T01:09:33;3.60;;;2.05;;
51560;SDS011;37654;51.262;17.058;2023-08-30T01:15:06;4.30;;;1.83;;
51560;SDS011;37654;51.262;17.058;2023-08-30T01:17:32;3.95;;;2.10;;
51560;SDS011;37654;51.262;17.058;2023-08-30T01:20:04;3.13;;;1.70;;
51560;SDS011;37654;51.262;17.058;2023-08-30T01:28:05;6.68;;;2.00;;
51560;SDS011;37654;51.262;17.058;2023-08-30T01:30:34;4.75;;;1.75;;
51560;SDS011;37654;51.262;17.058;2023-08-30T01:33:02;3.40;;;2.05;;
51560;SDS011;37654;51.262;17.058;2023-08-30T01:35:28;2.92;;;2.10;;
51560;SDS011;37654;51.262;17.058;2023-08-30T01:37:58;4.40;;;2.10;;
51560;SDS011;37654;51.262;17.058;2023-08-30T01:40:23;4.68;;;1.85;;
51560;SDS011;37654;51.262;17.058;2023-08-30T01:42:49;3.35;;;1.90;;
51560;SDS011;37654;51.262;17.058;2023-08-30T01:45:15;3.33;;;2.05;;
51560;SDS011;37654;51.262;17.058;2023-08-30T01:47:42;3.17;;;2.25;;
51560;SDS011;37654;51.262;17.058;2023-08-30T01:50:08;5.18;;;2.10;;
51560;SDS011;37654;51.262;17.058;2023-08-30T01:52:34;6.10;;;2.38;;
51560;SDS011;37654;51.262;17.058;2023-08-30T01:55:00;6.75;;;2.35;;
51560;SDS011;37654;51.262;17.058;2023-08-30T01:57:27;7.22;;;2.30;;
51560;SDS011;37654;51.262;17.058;2023-08-30T01:59:53;2.90;;;2.08;;
51560;SDS011;37654;51.262;17.058;2023-08-30T02:02:18;4.38;;;2.80;;
51560;SDS011;37654;51.262;17.058;2023-08-30T02:04:44;6.03;;;2.70;;
51560;SDS011;37654;51.262;17.058;2023-08-30T02:12:22;5.75;;;2.97;;
51560;SDS011;37654;51.262;17.058;2023-08-30T02:14:50;5.47;;;3.20;;
51560;SDS011;37654;51.262;17.058;2023-08-30T02:17:15;6.55;;;3.05;;
51560;SDS011;37654;51.262;17.058;2023-08-30T02:19:44;5.93;;;3.45;;
51560;SDS011;37654;51.262;17.058;2023-08-30T02:22:10;5.03;;;3.08;;
51560;SDS011;37654;51.262;17.058;2023-08-30T02:24:35;5.72;;;3.40;;
51560;SDS011;37654;51.262;17.058;2023-08-30T02:27:00;5.00;;;3.13;;
51560;SDS011;37654;51.262;17.058;2023-08-30T02:29:26;7.47;;;3.70;;
51560;SDS011;37654;51.262;17.058;2023-08-30T02:31:51;7.22;;;4.50;;
51560;SDS011;37654;51.262;17.058;2023-08-30T02:34:16;8.57;;;4.13;;
51560;SDS011;37654;51.262;17.058;2023-08-30T02:36:42;7.55;;;4.50;;
51560;SDS011;37654;51.262;17.058;2023-08-30T02:39:07;5.80;;;3.60;;
51560;SDS011;37654;51.262;17.058;2023-08-30T02:41:32;6.35;;;3.72;;
51560;SDS011;37654;51.262;17.058;2023-08-30T02:43:59;5.90;;;4.50;;
51560;SDS011;37654;51.262;17.058;2023-08-30T02:46:24;4.78;;;3.22;;
51560;SDS011;37654;51.262;17.058;2023-08-30T02:48:49;5.90;;;2.33;;
51560;SDS011;37654;51.262;17.058;2023-08-30T02:51:15;5.88;;;2.88;;
51560;SDS011;37654;51.262;17.058;2023-08-30T02:53:40;5.15;;;2.83;;
51560;SDS011;37654;51.262;17.058;2023-08-30T02:56:06;5.05;;;3.30;;
51560;SDS011;37654;51.262;17.058;2023-08-30T02:58:31;3.22;;;2.63;;
51560;SDS011;37654;51.262;17.058;2023-08-30T03:00:56;5.10;;;2.50;;
51560;SDS011;37654;51.262;17.058;2023-08-30T03:03:22;6.13;;;3.25;;
51560;SDS011;37654;51.262;17.058;2023-08-30T03:05:47;3.73;;;2.60;;
51560;SDS011;37654;51.262;17.058;2023-08-30T03:08:12;6.32;;;3.05;;
51560;SDS011;37654;51.262;17.058;2023-08-30T03:10:38;5.25;;;3.50;;
51560;SDS011;37654;51.262;17.058;2023-08-30T03:13:03;6.93;;;3.33;;
51560;SDS011;37654;51.262;17.058;2023-08-30T03:15:30;6.75;;;3.63;;
51560;SDS011;37654;51.262;17.058;2023-08-30T03:17:56;4.07;;;2.67;;
51560;SDS011;37654;51.262;17.058;2023-08-30T03:20:21;3.88;;;3.10;;
51560;SDS011;37654;51.262;17.058;2023-08-30T03:22:46;7.45;;;3.42;;
51560;SDS011;37654;51.262;17.058;2023-08-30T03:25:12;3.17;;;2.30;;
51560;SDS011;37654;51.262;17.058;2023-08-30T03:27:37;4.43;;;2.97;;
51560;SDS011;37654;51.262;17.058;2023-08-30T03:30:03;5.78;;;2.53;;
51560;SDS011;37654;51.262;17.058;2023-08-30T03:32:28;6.10;;;2.75;;
51560;SDS011;37654;51.262;17.058;2023-08-30T03:34:55;4.85;;;2.25;;
51560;SDS011;37654;51.262;17.058;2023-08-30T03:37:20;2.85;;;2.10;;
51560;SDS011;37654;51.262;17.058;2023-08-30T03:39:46;5.20;;;2.23;;
51560;SDS011;37654;51.262;17.058;2023-08-30T03:42:11;3.97;;;2.43;;
51560;SDS011;37654;51.262;17.058;2023-08-30T03:44:37;5.18;;;2.20;;
51560;SDS011;37654;51.262;17.058;2023-08-30T03:47:02;3.22;;;2.33;;
51560;SDS011;37654;51.262;17.058;2023-08-30T03:49:28;3.92;;;2.30;;
51560;SDS011;37654;51.262;17.058;2023-08-30T03:51:54;15.68;;;2.97;;
51560;SDS011;37654;51.262;17.058;2023-08-30T03:54:19;3.57;;;2.63;;
51560;SDS011;37654;51.262;17.058;2023-08-30T03:56:45;5.22;;;2.15;;
51560;SDS011;37654;51.262;17.058;2023-08-30T03:59:13;4.97;;;2.20;;
51560;SDS011;37654;51.262;17.058;2023-08-30T04:01:38;4.38;;;2.30;;
51560;SDS011;37654;51.262;17.058;2023-08-30T04:04:04;3.55;;;2.72;;
51560;SDS011;37654;51.262;17.058;2023-08-30T04:06:30;2.97;;;2.20;;
51560;SDS011;37654;51.262;17.058;2023-08-30T04:08:55;2.58;;;2.05;;
51560;SDS011;37654;51.262;17.058;2023-08-30T04:11:20;4.70;;;3.00;;
51560;SDS011;37654;51.262;17.058;2023-08-30T04:13:46;6.60;;;2.45;;
51560;SDS011;37654;51.262;17.058;2023-08-30T04:16:11;3.20;;;2.00;;
51560;SDS011;37654;51.262;17.058;2023-08-30T04:18:37;3.40;;;2.20;;
51560;SDS011;37654;51.262;17.058;2023-08-30T04:21:02;4.43;;;2.55;;
51560;SDS011;37654;51.262;17.058;2023-08-30T04:23:28;2.60;;;2.00;;
51560;SDS011;37654;51.262;17.058;2023-08-30T04:25:54;4.22;;;2.58;;
51560;SDS011;37654;51.262;17.058;2023-08-30T04:28:19;10.70;;;2.67;;
51560;SDS011;37654;51.262;17.058;2023-08-30T04:30:44;3.95;;;1.92;;
51560;SDS011;37654;51.262;17.058;2023-08-30T04:33:10;4.00;;;2.15;;
51560;SDS011;37654;51.262;17.058;2023-08-30T04:35:35;3.90;;;2.28;;
51560;SDS011;37654;51.262;17.058;2023-08-30T04:38:01;4.20;;;2.47;;
51560;SDS011;37654;51.262;17.058;2023-08-30T04:40:26;8.25;;;2.33;;
51560;SDS011;37654;51.262;17.058;2023-08-30T04:42:52;2.75;;;1.88;;
51560;SDS011;37654;51.262;17.058;2023-08-30T04:45:17;3.13;;;1.98;;
51560;SDS011;37654;51.262;17.058;2023-08-30T04:47:43;3.10;;;2.00;;
51560;SDS011;37654;51.262;17.058;2023-08-30T04:50:10;5.53;;;2.25;;
51560;SDS011;37654;51.262;17.058;2023-08-30T04:52:36;7.28;;;2.00;;
51560;SDS011;37654;51.262;17.058;2023-08-30T04:55:01;4.55;;;2.00;;
51560;SDS011;37654;51.262;17.058;2023-08-30T04:57:26;3.83;;;2.28;;
51560;SDS011;37654;51.262;17.058;2023-08-30T04:59:52;4.22;;;2.33;;
51560;SDS011;37654;51.262;17.058;2023-08-30T05:02:17;5.22;;;1.90;;
51560;SDS011;37654;51.262;17.058;2023-08-30T05:04:43;2.28;;;1.73;;
51560;SDS011;37654;51.262;17.058;2023-08-30T05:07:08;3.85;;;1.50;;
51560;SDS011;37654;51.262;17.058;2023-08-30T05:09:33;2.15;;;1.25;;
51560;SDS011;37654;51.262;17.058;2023-08-30T05:12:00;3.45;;;1.52;;
51560;SDS011;37654;51.262;17.058;2023-08-30T05:14:25;3.90;;;1.70;;
51560;SDS011;37654;51.262;17.058;2023-08-30T05:16:50;4.57;;;2.22;;
51560;SDS011;37654;51.262;17.058;2023-08-30T05:19:16;3.40;;;2.08;;
51560;SDS011;37654;51.262;17.058;2023-08-30T05:21:42;5.65;;;2.15;;
51560;SDS011;37654;51.262;17.058;2023-08-30T05:24:07;4.82;;;2.97;;
51560;SDS011;37654;51.262;17.058;2023-08-30T05:26:33;4.05;;;2.25;;
51560;SDS011;37654;51.262;17.058;2023-08-30T05:28:58;6.85;;;2.60;;
51560;SDS011;37654;51.262;17.058;2023-08-30T05:31:23;3.58;;;2.20;;
51560;SDS011;37654;51.262;17.058;2023-08-30T05:33:49;4.25;;;2.17;;
51560;SDS011;37654;51.262;17.058;2023-08-30T05:36:14;11.05;;;2.35;;
51560;SDS011;37654;51.262;17.058;2023-08-30T05:38:40;5.15;;;1.90;;
51560;SDS011;37654;51.262;17.058;2023-08-30T05:41:06;3.70;;;1.92;;
51560;SDS011;37654;51.262;17.058;2023-08-30T05:43:31;4.13;;;1.67;;
51560;SDS011;37654;51.262;17.058;2023-08-30T05:45:56;3.67;;;2.53;;
51560;SDS011;37654;51.262;17.058;2023-08-30T05:48:27;3.85;;;1.83;;
51560;SDS011;37654;51.262;17.058;2023-08-30T05:50:52;2.90;;;2.08;;
51560;SDS011;37654;51.262;17.058;2023-08-30T05:53:17;3.50;;;1.97;;
51560;SDS011;37654;51.262;17.058;2023-08-30T05:55:43;2.90;;;1.63;;
51560;SDS011;37654;51.262;17.058;2023-08-30T05:58:08;5.75;;;1.60;;
51560;SDS011;37654;51.262;17.058;2023-08-30T06:00:34;2.03;;;1.40;;
51560;SDS011;37654;51.262;17.058;2023-08-30T06:02:59;2.13;;;1.70;;
51560;SDS011;37654;51.262;17.058;2023-08-30T06:05:25;4.00;;;1.65;;
51560;SDS011;37654;51.262;17.058;2023-08-30T06:07:51;3.53;;;1.70;;
51560;SDS011;37654;51.262;17.058;2023-08-30T06:10:16;2.55;;;1.58;;
51560;SDS011;37654;51.262;17.058;2023-08-30T06:12:42;3.45;;;2.05;;
51560;SDS011;37654;51.262;17.058;2023-08-30T06:15:07;1.38;;;1.15;;
51560;SDS011;37654;51.262;17.058;2023-08-30T06:17:33;1.63;;;1.00;;
51560;SDS011;37654;51.262;17.058;2023-08-30T06:19:58;3.72;;;1.27;;
51560;SDS011;37654;51.262;17.058;2023-08-30T06:22:25;2.35;;;1.15;;
51560;SDS011;37654;51.262;17.058;2023-08-30T06:24:53;2.13;;;1.60;;
51560;SDS011;37654;51.262;17.058;2023-08-30T06:27:23;3.80;;;1.60;;
51560;SDS011;37654;51.262;17.058;2023-08-30T06:29:49;1.38;;;1.05;;
51560;SDS011;37654;51.262;17.058;2023-08-30T06:32:16;4.18;;;1.42;;
51560;SDS011;37654;51.262;17.058;2023-08-30T06:34:42;1.20;;;1.00;;
51560;SDS011;37654;51.262;17.058;2023-08-30T06:37:07;1.77;;;1.10;;
51560;SDS011;37654;51.262;17.058;2023-08-30T06:39:33;3.03;;;0.85;;
51560;SDS011;37654;51.262;17.058;2023-08-30T06:41:59;1.95;;;0.70;;
51560;SDS011;37654;51.262;17.058;2023-08-30T06:44:28;1.52;;;0.70;;
51560;SDS011;37654;51.262;17.058;2023-08-30T06:47:05;1.75;;;0.68;;
51560;SDS011;37654;51.262;17.058;2023-08-30T06:49:34;0.70;;;0.60;;
51560;SDS011;37654;51.262;17.058;2023-08-30T06:51:59;0.95;;;0.70;;
51560;SDS011;37654;51.262;17.058;2023-08-30T06:54:28;2.00;;;0.50;;
51560;SDS011;37654;51.262;17.058;2023-08-30T06:56:58;3.05;;;0.57;;
51560;SDS011;37654;51.262;17.058;2023-08-30T06:59:24;1.38;;;0.70;;
51560;SDS011;37654;51.262;17.058;2023-08-30T07:01:49;1.60;;;0.70;;
51560;SDS011;37654;51.262;17.058;2023-08-30T07:04:14;0.45;;;0.45;;
51560;SDS011;37654;51.262;17.058;2023-08-30T07:06:40;1.42;;;0.55;;
51560;SDS011;37654;51.262;17.058;2023-08-30T07:09:05;2.27;;;0.77;;
51560;SDS011;37654;51.262;17.058;2023-08-30T07:11:31;2.72;;;0.75;;
51560;SDS011;37654;51.262;17.058;2023-08-30T07:13:57;1.23;;;0.80;;
51560;SDS011;37654;51.262;17.058;2023-08-30T07:16:22;1.83;;;1.00;;
51560;SDS011;37654;51.262;17.058;2023-08-30T07:18:47;3.63;;;1.13;;
51560;SDS011;37654;51.262;17.058;2023-08-30T07:21:13;0.93;;;0.73;;
51560;SDS011;37654;51.262;17.058;2023-08-30T07:23:38;1.40;;;1.10;;
51560;SDS011;37654;51.262;17.058;2023-08-30T07:26:04;2.65;;;1.33;;
51560;SDS011;37654;51.262;17.058;2023-08-30T07:28:29;0.70;;;0.70;;
51560;SDS011;37654;51.262;17.058;2023-08-30T07:31:01;5.90;;;0.70;;
51560;SDS011;37654;51.262;17.058;2023-08-30T07:33:26;0.65;;;0.60;;
51560;SDS011;37654;51.262;17.058;2023-08-30T07:35:53;1.70;;;0.70;;
51560;SDS011;37654;51.262;17.058;2023-08-30T07:38:18;0.70;;;0.40;;
51560;SDS011;37654;51.262;17.058;2023-08-30T07:40:43;2.10;;;0.30;;
51560;SDS011;37654;51.262;17.058;2023-08-30T07:43:09;0.67;;;0.37;;
51560;SDS011;37654;51.262;17.058;2023-08-30T07:45:34;0.60;;;0.47;;
51560;SDS011;37654;51.262;17.058;2023-08-30T07:47:59;0.63;;;0.40;;
51560;SDS011;37654;51.262;17.058;2023-08-30T07:50:25;1.95;;;0.50;;
51560;SDS011;37654;51.262;17.058;2023-08-30T07:52:51;4.75;;;0.52;;
51560;SDS011;37654;51.262;17.058;2023-08-30T07:55:16;1.23;;;0.60;;
51560;SDS011;37654;51.262;17.058;2023-08-30T07:57:41;0.40;;;0.40;;
51560;SDS011;37654;51.262;17.058;2023-08-30T08:00:07;1.65;;;0.93;;
51560;SDS011;37654;51.262;17.058;2023-08-30T08:02:33;1.27;;;0.50;;
51560;SDS011;37654;51.262;17.058;2023-08-30T08:04:58;0.60;;;0.50;;
51560;SDS011;37654;51.262;17.058;2023-08-30T08:07:23;1.70;;;0.67;;
51560;SDS011;37654;51.262;17.058;2023-08-30T08:09:49;1.25;;;0.70;;
51560;SDS011;37654;51.262;17.058;2023-08-30T08:12:14;1.15;;;0.60;;
51560;SDS011;37654;51.262;17.058;2023-08-30T08:14:40;0.50;;;0.50;;
51560;SDS011;37654;51.262;17.058;2023-08-30T08:17:05;0.83;;;0.63;;
51560;SDS011;37654;51.262;17.058;2023-08-30T08:19:30;0.50;;;0.37;;
51560;SDS011;37654;51.262;17.058;2023-08-30T08:21:55;3.17;;;0.57;;
51560;SDS011;37654;51.262;17.058;2023-08-30T08:24:21;0.77;;;0.60;;
51560;SDS011;37654;51.262;17.058;2023-08-30T08:26:46;1.13;;;0.60;;
51560;SDS011;37654;51.262;17.058;2023-08-30T08:29:11;0.90;;;0.57;;
51560;SDS011;37654;51.262;17.058;2023-08-30T08:31:37;1.92;;;0.52;;
51560;SDS011;37654;51.262;17.058;2023-08-30T08:34:09;0.80;;;0.50;;
51560;SDS011;37654;51.262;17.058;2023-08-30T08:36:35;2.25;;;0.60;;
51560;SDS011;37654;51.262;17.058;2023-08-30T08:39:00;2.17;;;0.40;;
51560;SDS011;37654;51.262;17.058;2023-08-30T08:41:27;3.42;;;0.80;;
51560;SDS011;37654;51.262;17.058;2023-08-30T08:43:57;0.73;;;0.70;;
51560;SDS011;37654;51.262;17.058;2023-08-30T08:46:22;0.52;;;0.50;;
51560;SDS011;37654;51.262;17.058;2023-08-30T08:48:48;1.38;;;0.80;;
51560;SDS011;37654;51.262;17.058;2023-08-30T08:51:14;3.47;;;0.60;;
51560;SDS011;37654;51.262;17.058;2023-08-30T08:53:40;2.17;;;0.75;;
51560;SDS011;37654;51.262;17.058;2023-08-30T08:56:06;0.80;;;0.60;;
51560;SDS011;37654;51.262;17.058;2023-08-30T08:58:34;2.08;;;0.90;;
51560;SDS011;37654;51.262;17.058;2023-08-30T09:01:00;0.93;;;0.80;;
51560;SDS011;37654;51.262;17.058;2023-08-30T09:03:25;4.20;;;1.15;;
51560;SDS011;37654;51.262;17.058;2023-08-30T09:05:51;2.20;;;1.63;;
51560;SDS011;37654;51.262;17.058;2023-08-30T09:08:17;4.00;;;1.42;;
51560;SDS011;37654;51.262;17.058;2023-08-30T09:10:42;3.92;;;2.10;;
51560;SDS011;37654;51.262;17.058;2023-08-30T09:13:08;1.83;;;1.13;;
51560;SDS011;37654;51.262;17.058;2023-08-30T09:15:33;1.10;;;0.80;;
51560;SDS011;37654;51.262;17.058;2023-08-30T09:17:59;0.85;;;0.63;;
51560;SDS011;37654;51.262;17.058;2023-08-30T09:20:24;0.60;;;0.60;;
51560;SDS011;37654;51.262;17.058;2023-08-30T09:22:50;2.13;;;1.10;;
51560;SDS011;37654;51.262;17.058;2023-08-30T09:25:27;0.98;;;0.82;;
51560;SDS011;37654;51.262;17.058;2023-08-30T09:27:59;3.13;;;1.20;;
51560;SDS011;37654;51.262;17.058;2023-08-30T09:30:25;1.75;;;1.15;;
51560;SDS011;37654;51.262;17.058;2023-08-30T09:32:50;2.05;;;1.35;;
51560;SDS011;37654;51.262;17.058;2023-08-30T09:35:16;3.70;;;1.73;;
51560;SDS011;37654;51.262;17.058;2023-08-30T09:37:43;4.50;;;2.13;;
51560;SDS011;37654;51.262;17.058;2023-08-30T09:40:09;6.18;;;2.28;;
51560;SDS011;37654;51.262;17.058;2023-08-30T09:42:34;2.25;;;1.75;;
51560;SDS011;37654;51.262;17.058;2023-08-30T09:45:00;3.47;;;2.30;;
51560;SDS011;37654;51.262;17.058;2023-08-30T09:47:26;5.10;;;2.63;;
51560;SDS011;37654;51.262;17.058;2023-08-30T09:49:55;2.38;;;2.13;;
51560;SDS011;37654;51.262;17.058;2023-08-30T09:52:20;4.20;;;2.38;;
51560;SDS011;37654;51.262;17.058;2023-08-30T09:54:48;2.47;;;2.28;;
51560;SDS011;37654;51.262;17.058;2023-08-30T09:57:13;3.42;;;2.50;;
51560;SDS011;37654;51.262;17.058;2023-08-30T09:59:39;2.60;;;2.00;;
51560;SDS011;37654;51.262;17.058;2023-08-30T10:02:05;3.05;;;2.58;;
51560;SDS011;37654;51.262;17.058;2023-08-30T10:04:31;2.88;;;2.58;;
51560;SDS011;37654;51.262;17.058;2023-08-30T10:06:57;2.38;;;2.10;;
51560;SDS011;37654;51.262;17.058;2023-08-30T10:09:23;2.05;;;1.80;;
51560;SDS011;37654;51.262;17.058;2023-08-30T10:11:49;2.35;;;1.67;;
51560;SDS011;37654;51.262;17.058;2023-08-30T10:14:14;2.67;;;1.93;;
51560;SDS011;37654;51.262;17.058;2023-08-30T10:16:43;2.17;;;1.60;;
51560;SDS011;37654;51.262;17.058;2023-08-30T10:21:49;2.33;;;1.40;;
51560;SDS011;37654;51.262;17.058;2023-08-30T10:24:19;1.23;;;1.13;;
51560;SDS011;37654;51.262;17.058;2023-08-30T10:26:45;1.75;;;1.48;;
51560;SDS011;37654;51.262;17.058;2023-08-30T10:29:12;2.58;;;1.73;;
51560;SDS011;37654;51.262;17.058;2023-08-30T10:31:38;1.50;;;1.20;;
51560;SDS011;37654;51.262;17.058;2023-08-30T10:34:11;2.25;;;1.65;;
51560;SDS011;37654;51.262;17.058;2023-08-30T10:36:38;1.80;;;1.30;;
51560;SDS011;37654;51.262;17.058;2023-08-30T10:39:03;1.57;;;1.17;;
51560;SDS011;37654;51.262;17.058;2023-08-30T10:41:35;1.02;;;0.90;;
51560;SDS011;37654;51.262;17.058;2023-08-30T10:44:01;2.40;;;1.27;;
51560;SDS011;37654;51.262;17.058;2023-08-30T10:46:33;1.08;;;0.98;;
51560;SDS011;37654;51.262;17.058;2023-08-30T10:49:09;4.55;;;1.25;;
51560;SDS011;37654;51.262;17.058;2023-08-30T10:51:35;3.10;;;1.80;;
51560;SDS011;37654;51.262;17.058;2023-08-30T10:54:10;2.75;;;1.40;;
51560;SDS011;37654;51.262;17.058;2023-08-30T10:56:44;2.58;;;1.90;;
51560;SDS011;37654;51.262;17.058;2023-08-30T10:59:15;2.33;;;1.42;;
51560;SDS011;37654;51.262;17.058;2023-08-30T11:01:40;1.45;;;1.30;;
51560;SDS011;37654;51.262;17.058;2023-08-30T11:04:06;1.95;;;1.40;;
51560;SDS011;37654;51.262;17.058;2023-08-30T11:06:31;3.80;;;1.35;;
51560;SDS011;37654;51.262;17.058;2023-08-30T11:08:56;1.83;;;1.30;;
51560;SDS011;37654;51.262;17.058;2023-08-30T11:11:22;1.48;;;1.15;;
51560;SDS011;37654;51.262;17.058;2023-08-30T11:13:47;3.70;;;1.30;;
51560;SDS011;37654;51.262;17.058;2023-08-30T11:16:12;1.10;;;1.00;;
51560;SDS011;37654;51.262;17.058;2023-08-30T11:18:38;3.87;;;1.50;;
51560;SDS011;37654;51.262;17.058;2023-08-30T11:21:04;2.42;;;1.30;;
51560;SDS011;37654;51.262;17.058;2023-08-30T11:23:30;3.20;;;1.80;;
51560;SDS011;37654;51.262;17.058;2023-08-30T11:25:56;1.48;;;1.38;;
51560;SDS011;37654;51.262;17.058;2023-08-30T11:28:21;1.67;;;1.00;;
51560;SDS011;37654;51.262;17.058;2023-08-30T11:30:47;1.33;;;0.85;;
51560;SDS011;37654;51.262;17.058;2023-08-30T11:33:12;1.60;;;0.90;;
51560;SDS011;37654;51.262;17.058;2023-08-30T11:35:38;1.67;;;1.43;;
51560;SDS011;37654;51.262;17.058;2023-08-30T11:38:03;1.30;;;1.20;;
51560;SDS011;37654;51.262;17.058;2023-08-30T11:40:29;1.25;;;0.98;;
51560;SDS011;37654;51.262;17.058;2023-08-30T11:42:54;4.67;;;1.10;;
51560;SDS011;37654;51.262;17.058;2023-08-30T11:45:19;1.25;;;0.93;;
51560;SDS011;37654;51.262;17.058;2023-08-30T11:47:45;2.00;;;1.47;;
51560;SDS011;37654;51.262;17.058;2023-08-30T11:50:10;2.78;;;1.38;;
51560;SDS011;37654;51.262;17.058;2023-08-30T11:52:37;3.35;;;1.10;;
51560;SDS011;37654;51.262;17.058;2023-08-30T11:55:03;0.85;;;0.82;;
51560;SDS011;37654;51.262;17.058;2023-08-30T11:57:32;0.88;;;0.80;;
51560;SDS011;37654;51.262;17.058;2023-08-30T12:00:09;1.05;;;0.77;;
51560;SDS011;37654;51.262;17.058;2023-08-30T12:02:35;0.90;;;0.77;;
51560;SDS011;37654;51.262;17.058;2023-08-30T12:05:00;2.70;;;1.30;;
51560;SDS011;37654;51.262;17.058;2023-08-30T12:07:26;1.27;;;0.70;;
51560;SDS011;37654;51.262;17.058;2023-08-30T12:09:51;1.10;;;0.80;;
51560;SDS011;37654;51.262;17.058;2023-08-30T12:12:18;5.40;;;0.98;;
51560;SDS011;37654;51.262;17.058;2023-08-30T12:14:43;2.65;;;0.90;;
51560;SDS011;37654;51.262;17.058;2023-08-30T12:17:09;1.90;;;1.20;;
51560;SDS011;37654;51.262;17.058;2023-08-30T12:19:37;1.98;;;0.93;;
51560;SDS011;37654;51.262;17.058;2023-08-30T12:22:06;2.25;;;0.57;;
51560;SDS011;37654;51.262;17.058;2023-08-30T12:24:44;1.17;;;1.00;;
51560;SDS011;37654;51.262;17.058;2023-08-30T12:27:10;1.58;;;1.10;;
51560;SDS011;37654;51.262;17.058;2023-08-30T12:29:35;1.80;;;0.90;;
51560;SDS011;37654;51.262;17.058;2023-08-30T12:32:01;1.63;;;0.80;;
51560;SDS011;37654;51.262;17.058;2023-08-30T12:34:26;0.60;;;0.50;;
51560;SDS011;37654;51.262;17.058;2023-08-30T12:36:51;2.05;;;1.20;;
51560;SDS011;37654;51.262;17.058;2023-08-30T12:39:17;4.88;;;1.92;;
51560;SDS011;37654;51.262;17.058;2023-08-30T12:41:42;11.97;;;4.60;;
51560;SDS011;37654;51.262;17.058;2023-08-30T12:44:08;3.58;;;2.15;;
51560;SDS011;37654;51.262;17.058;2023-08-30T12:46:33;8.63;;;2.92;;
51560;SDS011;37654;51.262;17.058;2023-08-30T12:48:59;3.13;;;1.70;;
51560;SDS011;37654;51.262;17.058;2023-08-30T12:51:24;3.43;;;1.77;;
51560;SDS011;37654;51.262;17.058;2023-08-30T12:53:49;3.17;;;0.80;;
51560;SDS011;37654;51.262;17.058;2023-08-30T12:56:15;1.97;;;1.03;;
51560;SDS011;37654;51.262;17.058;2023-08-30T12:58:40;1.27;;;0.80;;
51560;SDS011;37654;51.262;17.058;2023-08-30T13:01:05;0.70;;;0.50;;
51560;SDS011;37654;51.262;17.058;2023-08-30T13:03:30;3.10;;;0.73;;
51560;SDS011;37654;51.262;17.058;2023-08-30T13:05:56;1.53;;;0.60;;
51560;SDS011;37654;51.262;17.058;2023-08-30T13:08:23;1.20;;;0.60;;
51560;SDS011;37654;51.262;17.058;2023-08-30T13:10:48;1.87;;;0.60;;
51560;SDS011;37654;51.262;17.058;2023-08-30T13:13:14;0.73;;;0.60;;
51560;SDS011;37654;51.262;17.058;2023-08-30T13:15:39;1.73;;;0.80;;
51560;SDS011;37654;51.262;17.058;2023-08-30T13:18:05;0.90;;;0.80;;
51560;SDS011;37654;51.262;17.058;2023-08-30T13:20:30;0.97;;;0.43;;
51560;SDS011;37654;51.262;17.058;2023-08-30T13:22:55;1.13;;;0.60;;
51560;SDS011;37654;51.262;17.058;2023-08-30T13:25:21;0.65;;;0.50;;
51560;SDS011;37654;51.262;17.058;2023-08-30T13:27:46;1.63;;;0.70;;
51560;SDS011;37654;51.262;17.058;2023-08-30T13:30:12;1.23;;;0.90;;
51560;SDS011;37654;51.262;17.058;2023-08-30T13:32:37;1.65;;;0.90;;
51560;SDS011;37654;51.262;17.058;2023-08-30T13:35:03;1.30;;;1.00;;
51560;SDS011;37654;51.262;17.058;2023-08-30T13:37:28;2.58;;;0.80;;
51560;SDS011;37654;51.262;17.058;2023-08-30T13:39:54;0.93;;;0.70;;
51560;SDS011;37654;51.262;17.058;2023-08-30T13:42:19;1.05;;;0.90;;
51560;SDS011;37654;51.262;17.058;2023-08-30T13:44:45;1.05;;;0.68;;
51560;SDS011;37654;51.262;17.058;2023-08-30T13:47:11;1.37;;;0.80;;
51560;SDS011;37654;51.262;17.058;2023-08-30T13:49:36;3.70;;;1.52;;
51560;SDS011;37654;51.262;17.058;2023-08-30T13:52:02;3.28;;;1.15;;
51560;SDS011;37654;51.262;17.058;2023-08-30T13:54:28;1.70;;;0.98;;
51560;SDS011;37654;51.262;17.058;2023-08-30T13:56:56;3.50;;;0.80;;
51560;SDS011;37654;51.262;17.058;2023-08-30T13:59:21;1.85;;;1.38;;
51560;SDS011;37654;51.262;17.058;2023-08-30T14:01:47;2.17;;;0.80;;
51560;SDS011;37654;51.262;17.058;2023-08-30T14:04:12;1.30;;;0.70;;
51560;SDS011;37654;51.262;17.058;2023-08-30T14:06:38;1.03;;;0.80;;
51560;SDS011;37654;51.262;17.058;2023-08-30T14:09:03;1.23;;;1.00;;
51560;SDS011;37654;51.262;17.058;2023-08-30T14:11:30;1.45;;;0.80;;
51560;SDS011;37654;51.262;17.058;2023-08-30T14:13:55;1.00;;;0.70;;
51560;SDS011;37654;51.262;17.058;2023-08-30T14:16:21;1.10;;;0.52;;
51560;SDS011;37654;51.262;17.058;2023-08-30T14:18:46;1.73;;;0.80;;
51560;SDS011;37654;51.262;17.058;2023-08-30T14:21:11;1.60;;;0.60;;
51560;SDS011;37654;51.262;17.058;2023-08-30T14:23:38;1.42;;;0.70;;
51560;SDS011;37654;51.262;17.058;2023-08-30T14:26:04;2.37;;;0.60;;
51560;SDS011;37654;51.262;17.058;2023-08-30T14:28:38;1.10;;;0.93;;
51560;SDS011;37654;51.262;17.058;2023-08-30T14:31:06;0.85;;;0.60;;
51560;SDS011;37654;51.262;17.058;2023-08-30T14:33:31;0.90;;;0.50;;
51560;SDS011;37654;51.262;17.058;2023-08-30T14:35:57;0.87;;;0.70;;
51560;SDS011;37654;51.262;17.058;2023-08-30T14:38:22;0.70;;;0.70;;
51560;SDS011;37654;51.262;17.058;2023-08-30T14:41:00;4.35;;;1.08;;
51560;SDS011;37654;51.262;17.058;2023-08-30T14:43:26;5.45;;;1.70;;